createdAt,value
2023-05-22T00:00:28.493Z,98.40
2023-05-22T00:03:17.200Z,98.60
2023-05-22T00:05:45.426Z,98.80
2023-05-22T00:08:15.303Z,99.00
2023-05-22T00:10:43.628Z,99.30
2023-05-22T00:13:12.166Z,99.50
2023-05-22T00:15:40.386Z,99.70
2023-05-22T00:18:09.295Z,99.90
2023-05-22T00:20:39.416Z,99.90
2023-05-22T00:23:10.240Z,99.90
2023-05-22T00:25:40.731Z,99.90
2023-05-22T00:28:09.284Z,99.90
2023-05-22T00:30:38.798Z,99.90
2023-05-22T00:33:07.717Z,99.90
2023-05-22T00:35:36.190Z,99.90
2023-05-22T00:38:05.673Z,99.90
2023-05-22T00:40:34.059Z,99.90
2023-05-22T00:43:08.491Z,99.90
2023-05-22T00:45:37.021Z,99.90
2023-05-22T00:48:06.127Z,99.90
2023-05-22T00:50:34.481Z,99.90
2023-05-22T00:53:03.622Z,99.90
2023-05-22T00:55:32.080Z,99.90
2023-05-22T00:58:01.106Z,99.90
2023-05-22T01:00:34.261Z,99.90
2023-05-22T01:03:03.035Z,99.90
2023-05-22T01:05:31.463Z,99.90
2023-05-22T01:07:59.941Z,99.90
2023-05-22T01:10:29.137Z,99.90
2023-05-22T01:13:05.780Z,99.90
2023-05-22T01:15:44.440Z,99.90
2023-05-22T01:18:20.700Z,99.90
2023-05-22T01:20:58.212Z,99.90
2023-05-22T01:24:00.152Z,99.90
2023-05-22T01:27:10.907Z,99.90
2023-05-22T01:29:48.934Z,99.90
2023-05-22T01:32:22.512Z,99.90
2023-05-22T01:34:55.671Z,99.90
2023-05-22T01:37:25.382Z,99.90
2023-05-22T01:39:54.520Z,99.90
2023-05-22T01:42:23.039Z,99.90
2023-05-22T01:44:51.653Z,99.90
2023-05-22T01:47:21.507Z,99.90
2023-05-22T01:49:50.201Z,99.90
2023-05-22T01:52:26.896Z,99.90
2023-05-22T01:55:03.635Z,99.90
2023-05-22T01:57:39.251Z,99.90
2023-05-22T02:00:10.913Z,99.90
2023-05-22T02:02:43.630Z,99.90
2023-05-22T02:05:14.641Z,99.90
2023-05-22T02:07:43.714Z,99.90
2023-05-22T02:10:14.335Z,99.90
2023-05-22T02:12:43.219Z,99.90
2023-05-22T02:15:12.248Z,99.90
2023-05-22T02:17:42.017Z,99.90
2023-05-22T02:20:14.554Z,99.90
2023-05-22T02:22:44.578Z,99.90
2023-05-22T02:25:14.663Z,99.90
2023-05-22T02:27:43.793Z,99.90
2023-05-22T02:30:12.981Z,99.90
2023-05-22T02:32:43.093Z,99.90
2023-05-22T02:35:11.872Z,99.90
2023-05-22T02:37:40.215Z,99.90
2023-05-22T02:40:10.101Z,99.90
2023-05-22T02:42:38.749Z,99.90
2023-05-22T02:45:08.613Z,99.90
2023-05-22T02:47:36.870Z,99.90
2023-05-22T02:50:08.435Z,99.90
2023-05-22T02:52:37.108Z,99.90
2023-05-22T02:55:07.416Z,99.90
2023-05-22T02:57:36.247Z,99.90
2023-05-22T03:00:05.399Z,99.90
2023-05-22T03:02:33.692Z,99.90
2023-05-22T03:05:02.869Z,99.90
2023-05-22T03:07:32.744Z,99.90
2023-05-22T03:10:01.318Z,99.90
2023-05-22T03:12:29.597Z,99.90
2023-05-22T03:14:58.218Z,99.90
2023-05-22T03:17:26.493Z,99.90
2023-05-22T03:19:55.279Z,99.90
2023-05-22T03:22:23.700Z,99.90
2023-05-22T03:24:53.645Z,99.90
2023-05-22T03:27:22.027Z,99.90
2023-05-22T03:29:50.575Z,99.90
2023-05-22T03:32:18.883Z,99.90
2023-05-22T03:34:47.512Z,99.90
2023-05-22T03:37:15.882Z,99.90
2023-05-22T03:39:44.473Z,99.90
2023-05-22T03:42:14.421Z,99.90
2023-05-22T03:44:43.009Z,99.90
2023-05-22T03:47:11.231Z,99.90
2023-05-22T03:49:39.781Z,99.90
2023-05-22T03:52:10.888Z,99.90
2023-05-22T03:54:39.474Z,99.90
2023-05-22T03:57:07.663Z,99.90
2023-05-22T03:59:37.842Z,99.90
2023-05-22T04:02:06.786Z,99.90
2023-05-22T04:04:38.830Z,99.90
2023-05-22T04:07:08.348Z,99.90
2023-05-22T04:09:37.293Z,99.90
2023-05-22T04:12:06.450Z,99.90
2023-05-22T04:14:35.173Z,99.90
2023-05-22T04:17:05.000Z,99.90
2023-05-22T04:19:33.715Z,99.90
2023-05-22T04:22:01.989Z,99.90
2023-05-22T04:24:30.558Z,99.90
2023-05-22T04:27:00.377Z,99.90
2023-05-22T04:29:29.351Z,99.90
2023-05-22T04:31:57.707Z,99.90
2023-05-22T04:34:28.642Z,99.90
2023-05-22T04:36:57.000Z,99.90
2023-05-22T04:39:26.344Z,99.90
2023-05-22T04:41:54.710Z,99.90
2023-05-22T04:44:23.865Z,99.90
2023-05-22T04:46:52.401Z,99.90
2023-05-22T04:49:21.095Z,99.90
2023-05-22T04:51:50.695Z,99.90
2023-05-22T04:54:19.364Z,99.90
2023-05-22T04:56:47.772Z,99.90
2023-05-22T04:59:16.457Z,99.90
2023-05-22T05:01:45.490Z,99.90
2023-05-22T05:04:14.244Z,99.90
2023-05-22T05:06:43.308Z,99.90
2023-05-22T05:09:13.204Z,99.90
2023-05-22T05:11:41.529Z,99.90
2023-05-22T05:14:10.150Z,99.60
2023-05-22T05:16:38.414Z,99.20
2023-05-22T05:19:07.189Z,99.00
2023-05-22T05:21:35.949Z,98.60
2023-05-22T05:24:04.806Z,98.50
2023-05-22T05:26:34.524Z,98.80
2023-05-22T05:29:03.049Z,98.20
2023-05-22T05:31:32.929Z,98.00
2023-05-22T05:34:01.619Z,97.80
2023-05-22T05:36:30.559Z,97.70
2023-05-22T05:38:59.116Z,97.60
2023-05-22T05:41:27.689Z,97.40
2023-05-22T05:43:59.987Z,97.20
2023-05-22T05:46:28.330Z,97.10
2023-05-22T05:48:56.907Z,96.80
2023-05-22T05:51:25.134Z,96.40
2023-05-22T05:53:53.619Z,96.30
2023-05-22T05:56:21.923Z,95.90
2023-05-22T05:58:50.402Z,95.70
2023-05-22T06:01:20.105Z,95.40
2023-05-22T06:03:48.829Z,95.30
2023-05-22T06:06:17.602Z,94.30
2023-05-22T06:08:46.368Z,93.70
2023-05-22T06:11:14.680Z,93.00
2023-05-22T06:13:43.195Z,92.20
2023-05-22T06:16:12.331Z,91.40
2023-05-22T06:18:42.236Z,90.80
2023-05-22T06:21:10.576Z,90.20
2023-05-22T06:23:39.343Z,88.80
2023-05-22T06:26:08.244Z,86.50
2023-05-22T06:28:36.763Z,85.40
2023-05-22T06:31:05.344Z,83.40
2023-05-22T06:33:34.639Z,81.90
2023-05-22T06:36:04.828Z,80.40
2023-05-22T06:38:33.779Z,79.30
2023-05-22T06:41:02.107Z,76.90
2023-05-22T06:43:30.906Z,75.70
2023-05-22T06:45:59.218Z,74.80
2023-05-22T06:48:27.772Z,73.00
2023-05-22T06:50:56.040Z,71.40
2023-05-22T06:53:26.029Z,71.00
2023-05-22T06:55:54.360Z,70.30
2023-05-22T06:58:23.046Z,69.90
2023-05-22T07:00:51.423Z,69.70
2023-05-22T07:03:20.340Z,68.80
2023-05-22T07:05:48.623Z,68.20
2023-05-22T07:08:17.275Z,67.60
2023-05-22T07:10:46.931Z,65.80
2023-05-22T07:13:15.531Z,65.80
2023-05-22T07:15:46.388Z,64.40
2023-05-22T07:18:15.317Z,64.80
2023-05-22T07:20:44.439Z,65.10
2023-05-22T07:23:13.047Z,64.40
2023-05-22T07:25:41.465Z,63.80
2023-05-22T07:28:11.650Z,63.60
2023-05-22T07:30:40.107Z,64.30
2023-05-22T07:33:08.984Z,64.80
2023-05-22T07:35:37.323Z,63.20
2023-05-22T07:38:05.849Z,62.40
2023-05-22T07:40:34.179Z,62.10
2023-05-22T07:43:02.697Z,62.60
2023-05-22T07:45:32.541Z,62.50
2023-05-22T07:48:02.210Z,61.90
2023-05-22T07:50:33.129Z,60.90
2023-05-22T07:53:02.110Z,60.20
2023-05-22T07:55:30.390Z,59.80
2023-05-22T07:57:59.111Z,59.50
2023-05-22T08:00:27.484Z,60.10
2023-05-22T08:02:57.394Z,59.40
2023-05-22T08:05:25.908Z,59.10
2023-05-22T08:07:54.685Z,57.20
2023-05-22T08:10:23.220Z,57.00
2023-05-22T08:12:51.904Z,57.50
2023-05-22T08:15:20.439Z,57.50
2023-05-22T08:17:49.580Z,56.40
2023-05-22T08:20:19.328Z,56.30
2023-05-22T08:22:48.130Z,56.40
2023-05-22T08:25:16.685Z,56.70
2023-05-22T08:27:45.211Z,54.90
2023-05-22T08:30:13.631Z,54.90
2023-05-22T08:32:42.215Z,55.10
2023-05-22T08:35:11.532Z,55.10
2023-05-22T08:37:41.660Z,56.30
2023-05-22T08:40:12.640Z,56.10
2023-05-22T08:42:41.614Z,55.60
2023-05-22T08:45:10.604Z,54.30
2023-05-22T08:47:41.955Z,54.50
2023-05-22T08:50:11.224Z,54.50
2023-05-22T08:52:48.457Z,53.30
2023-05-22T08:55:19.448Z,53.30
2023-05-22T08:57:48.412Z,53.10
2023-05-22T09:00:18.073Z,53.40
2023-05-22T09:02:47.966Z,53.50
2023-05-22T09:05:17.987Z,54.10
2023-05-22T09:07:48.931Z,54.10
2023-05-22T09:10:17.299Z,54.60
2023-05-22T09:13:04.532Z,54.10
2023-05-22T09:15:33.478Z,54.10
2023-05-22T09:18:03.627Z,54.50
2023-05-22T09:20:35.854Z,54.00
2023-05-22T09:23:12.699Z,53.70
2023-05-22T09:25:42.581Z,52.90
2023-05-22T09:28:12.506Z,52.50
2023-05-22T09:30:42.622Z,52.60
2023-05-22T09:33:14.301Z,52.60
2023-05-22T09:35:43.960Z,53.00
2023-05-22T09:38:14.120Z,53.50
2023-05-22T09:40:43.124Z,53.10
2023-05-22T09:43:12.106Z,52.90
2023-05-22T09:45:40.947Z,52.50
2023-05-22T09:48:10.888Z,52.60
2023-05-22T09:50:40.417Z,52.80
2023-05-22T09:53:11.313Z,52.70
2023-05-22T09:55:41.267Z,52.10
2023-05-22T09:58:13.021Z,51.60
2023-05-22T10:00:43.054Z,51.80
2023-05-22T10:03:12.926Z,52.30
2023-05-22T10:05:46.806Z,52.70
2023-05-22T10:08:17.130Z,52.90
2023-05-22T10:10:51.374Z,53.10
2023-05-22T10:13:20.105Z,53.40
2023-05-22T10:15:49.818Z,53.90
2023-05-22T10:18:19.295Z,53.10
2023-05-22T10:20:48.426Z,53.40
2023-05-22T10:23:18.302Z,53.10
2023-05-22T10:25:48.653Z,53.50
2023-05-22T10:28:28.685Z,53.60
2023-05-22T10:31:03.102Z,54.00
2023-05-22T10:33:49.606Z,53.70
2023-05-22T10:36:27.455Z,54.20
2023-05-22T10:39:09.236Z,54.10
2023-05-22T10:41:39.179Z,54.10
2023-05-22T10:44:08.252Z,55.20
2023-05-22T10:46:38.035Z,54.90
2023-05-22T10:49:06.849Z,55.80
2023-05-22T10:51:35.410Z,55.40
2023-05-22T10:54:05.580Z,56.20
2023-05-22T10:56:36.259Z,55.90
2023-05-22T10:59:08.170Z,56.00
2023-05-22T11:01:38.508Z,55.90
2023-05-22T11:04:13.122Z,55.80
2023-05-22T11:06:43.067Z,55.70
2023-05-22T11:09:22.868Z,55.40
2023-05-22T11:12:16.290Z,54.90
2023-05-22T11:14:50.246Z,55.30
2023-05-22T11:17:20.053Z,55.40
2023-05-22T11:20:02.738Z,54.60
2023-05-22T11:22:36.685Z,54.40
2023-05-22T11:25:08.688Z,54.80
2023-05-22T11:27:39.166Z,54.60
2023-05-22T11:30:10.809Z,55.40
2023-05-22T11:32:40.327Z,55.50
2023-05-22T11:35:09.589Z,54.40
2023-05-22T11:37:41.704Z,54.00
2023-05-22T11:40:11.602Z,54.50
2023-05-22T11:42:40.003Z,54.40
2023-05-22T11:45:11.067Z,54.10
2023-05-22T11:47:39.597Z,53.80
2023-05-22T11:50:10.885Z,53.60
2023-05-22T11:52:41.651Z,53.40
2023-05-22T11:55:11.368Z,53.30
2023-05-22T11:57:39.910Z,53.50
2023-05-22T12:00:11.047Z,53.90
2023-05-22T12:02:39.632Z,54.30
2023-05-22T12:05:11.891Z,54.30
2023-05-22T12:07:40.175Z,54.50
2023-05-22T12:10:09.114Z,54.80
2023-05-22T12:12:38.564Z,55.00
2023-05-22T12:15:09.841Z,55.10
2023-05-22T12:17:38.872Z,54.90
2023-05-22T12:20:08.305Z,54.70
2023-05-22T12:22:42.275Z,54.70
2023-05-22T12:25:16.254Z,54.40
2023-05-22T12:27:45.300Z,54.50
2023-05-22T12:30:16.889Z,54.90
2023-05-22T12:32:49.483Z,55.10
2023-05-22T12:35:19.314Z,55.50
2023-05-22T12:37:51.159Z,55.50
2023-05-22T12:40:20.466Z,56.00
2023-05-22T12:42:50.061Z,56.20
2023-05-22T12:45:19.979Z,56.20
2023-05-22T12:47:48.343Z,56.00
2023-05-22T12:50:17.027Z,55.90
2023-05-22T12:52:45.523Z,55.90
2023-05-22T12:55:14.180Z,56.00
2023-05-22T12:57:42.489Z,56.40
2023-05-22T13:00:12.294Z,56.70
2023-05-22T13:02:42.295Z,56.60
2023-05-22T13:05:11.346Z,56.20
2023-05-22T13:07:39.657Z,55.90
2023-05-22T13:10:09.517Z,55.00
2023-05-22T13:12:37.770Z,54.70
2023-05-22T13:15:07.663Z,54.50
2023-05-22T13:17:36.210Z,54.30
2023-05-22T13:20:07.254Z,54.20
2023-05-22T13:22:35.529Z,54.20
2023-05-22T13:25:04.308Z,54.00
2023-05-22T13:27:33.862Z,53.40
2023-05-22T13:30:03.270Z,53.40
2023-05-22T13:32:32.048Z,53.50
2023-05-22T13:35:00.870Z,53.10
2023-05-22T13:37:30.563Z,53.10
2023-05-22T13:39:59.201Z,53.30
2023-05-22T13:42:27.486Z,53.40
2023-05-22T13:44:56.121Z,53.70
2023-05-22T13:47:26.037Z,53.80
2023-05-22T13:49:54.789Z,53.70
2023-05-22T13:52:24.887Z,53.60
2023-05-22T13:54:55.373Z,53.40
2023-05-22T13:57:23.820Z,53.50
2023-05-22T13:59:52.535Z,53.30
2023-05-22T14:02:21.292Z,53.40
2023-05-22T14:04:50.297Z,53.50
2023-05-22T14:07:18.790Z,53.70
2023-05-22T14:09:47.385Z,53.70
2023-05-22T14:12:17.071Z,53.70
2023-05-22T14:14:45.532Z,53.50
2023-05-22T14:17:13.775Z,53.60
2023-05-22T14:19:42.516Z,53.70
2023-05-22T14:22:10.857Z,53.50
2023-05-22T14:24:39.370Z,53.50
2023-05-22T14:27:07.720Z,53.70
2023-05-22T14:29:37.645Z,53.90
2023-05-22T14:32:07.111Z,53.80
2023-05-22T14:34:35.661Z,53.60
2023-05-22T14:37:04.042Z,53.40
2023-05-22T14:39:32.532Z,53.60
2023-05-22T14:42:00.932Z,53.60
2023-05-22T14:44:29.595Z,53.70
2023-05-22T14:46:59.199Z,53.70
2023-05-22T14:49:27.667Z,54.00
2023-05-22T14:51:55.846Z,54.00
2023-05-22T14:54:24.306Z,54.00
2023-05-22T14:56:52.662Z,54.00
2023-05-22T14:59:21.451Z,53.90
2023-05-22T15:01:50.580Z,54.00
2023-05-22T15:04:20.769Z,54.20
2023-05-22T15:06:49.308Z,54.30
2023-05-22T15:09:18.039Z,54.30
2023-05-22T15:11:49.254Z,54.50
2023-05-22T15:14:18.226Z,54.70
2023-05-22T15:16:46.571Z,54.80
2023-05-22T15:19:15.100Z,55.10
2023-05-22T15:21:44.717Z,55.30
2023-05-22T15:24:13.308Z,55.40
2023-05-22T15:26:41.566Z,55.50
2023-05-22T15:29:10.161Z,55.50
2023-05-22T15:31:38.528Z,55.50
2023-05-22T15:34:07.238Z,55.20
2023-05-22T15:36:37.484Z,55.30
2023-05-22T15:39:07.351Z,55.40
2023-05-22T15:41:35.801Z,55.40
2023-05-22T15:44:04.369Z,55.30
2023-05-22T15:46:33.002Z,55.40
2023-05-22T15:49:01.593Z,55.50
2023-05-22T15:51:31.060Z,55.70
2023-05-22T15:53:59.758Z,55.70
2023-05-22T15:56:29.433Z,55.70
2023-05-22T15:58:57.954Z,55.80
2023-05-22T16:01:26.381Z,55.80
2023-05-22T16:03:54.912Z,55.50
2023-05-22T16:06:23.617Z,55.50
2023-05-22T16:08:52.293Z,55.60
2023-05-22T16:11:20.648Z,55.90
2023-05-22T16:13:50.988Z,55.80
2023-05-22T16:16:19.258Z,55.80
2023-05-22T16:18:47.852Z,56.00
2023-05-22T16:21:16.190Z,55.90
2023-05-22T16:23:44.684Z,55.90
2023-05-22T16:26:12.887Z,56.00
2023-05-22T16:28:41.465Z,56.00
2023-05-22T16:31:12.852Z,55.90
2023-05-22T16:33:41.698Z,55.80
2023-05-22T16:36:10.313Z,55.80
2023-05-22T16:38:39.158Z,55.90
2023-05-22T16:41:07.451Z,56.10
2023-05-22T16:43:36.702Z,56.10
2023-05-22T16:46:05.088Z,56.20
2023-05-22T16:48:35.460Z,56.20
2023-05-22T16:51:03.767Z,56.30
2023-05-22T16:53:32.427Z,56.40
2023-05-22T16:56:00.810Z,56.40
2023-05-22T16:58:29.411Z,56.60
2023-05-22T17:00:57.879Z,56.70
2023-05-22T17:03:27.082Z,56.90
2023-05-22T17:05:56.954Z,57.00
2023-05-22T17:08:28.262Z,57.20
2023-05-22T17:10:56.759Z,57.40
2023-05-22T17:13:25.442Z,57.60
2023-05-22T17:15:53.677Z,57.90
2023-05-22T17:18:22.204Z,58.10
2023-05-22T17:20:51.017Z,58.30
2023-05-22T17:23:21.226Z,58.50
2023-05-22T17:25:50.688Z,58.80
2023-05-22T17:28:19.244Z,58.90
2023-05-22T17:30:48.258Z,59.10
2023-05-22T17:33:17.314Z,59.40
2023-05-22T17:35:46.040Z,59.50
2023-05-22T17:38:14.882Z,59.70
2023-05-22T17:40:46.227Z,59.90
2023-05-22T17:43:16.596Z,60.00
2023-05-22T17:45:49.792Z,60.30
2023-05-22T17:48:23.423Z,60.50
2023-05-22T17:50:52.247Z,60.80
2023-05-22T17:53:21.678Z,60.90
2023-05-22T17:55:52.554Z,61.10
2023-05-22T17:58:21.698Z,62.20
2023-05-22T18:00:50.141Z,61.70
2023-05-22T18:03:20.902Z,62.70
2023-05-22T18:05:49.915Z,62.20
2023-05-22T18:08:19.153Z,62.50
2023-05-22T18:10:47.432Z,62.70
2023-05-22T18:13:19.264Z,63.00
2023-05-22T18:15:49.040Z,63.40
2023-05-22T18:18:20.829Z,63.70
2023-05-22T18:20:49.083Z,63.90
2023-05-22T18:23:17.641Z,64.20
2023-05-22T18:25:45.955Z,64.50
2023-05-22T18:28:14.580Z,64.80
2023-05-22T18:30:45.734Z,65.20
2023-05-22T18:33:14.331Z,65.50
2023-05-22T18:35:42.643Z,65.70
2023-05-22T18:38:11.279Z,66.00
2023-05-22T18:40:39.637Z,66.50
2023-05-22T18:43:08.257Z,66.70
2023-05-22T18:45:36.509Z,67.00
2023-05-22T18:48:06.452Z,67.30
2023-05-22T18:50:35.156Z,67.70
2023-05-22T18:53:03.749Z,68.00
2023-05-22T18:55:31.999Z,68.40
2023-05-22T18:58:00.682Z,68.80
2023-05-22T19:00:28.988Z,69.10
2023-05-22T19:02:57.960Z,69.40
2023-05-22T19:05:27.624Z,69.70
2023-05-22T19:07:56.235Z,69.90
2023-05-22T19:10:24.471Z,70.10
2023-05-22T19:12:52.970Z,70.30
2023-05-22T19:15:21.183Z,70.60
2023-05-22T19:17:49.718Z,71.00
2023-05-22T19:20:18.044Z,71.20
2023-05-22T19:22:47.914Z,71.50
2023-05-22T19:25:16.200Z,71.80
2023-05-22T19:27:44.999Z,72.00
2023-05-22T19:30:15.246Z,72.30
2023-05-22T19:32:44.453Z,72.60
2023-05-22T19:35:15.439Z,73.00
2023-05-22T19:37:43.941Z,73.40
2023-05-22T19:40:13.733Z,73.80
2023-05-22T19:42:43.129Z,74.00
2023-05-22T19:45:11.848Z,74.50
2023-05-22T19:47:40.528Z,75.00
2023-05-22T19:50:09.509Z,75.50
2023-05-22T19:52:38.140Z,76.00
2023-05-22T19:55:07.062Z,76.40
2023-05-22T19:57:36.920Z,76.80
2023-05-22T20:00:07.526Z,77.40
2023-05-22T20:02:36.219Z,77.70
2023-05-22T20:05:04.831Z,78.00
2023-05-22T20:07:33.399Z,78.40
2023-05-22T20:10:01.566Z,78.80
2023-05-22T20:12:30.029Z,79.10
2023-05-22T20:14:59.812Z,79.50
2023-05-22T20:17:28.415Z,79.90
2023-05-22T20:19:57.663Z,80.00
2023-05-22T20:22:26.718Z,80.50
2023-05-22T20:24:55.193Z,80.60
2023-05-22T20:27:23.735Z,80.90
2023-05-22T20:29:52.050Z,81.00
2023-05-22T20:32:22.334Z,81.30
2023-05-22T20:34:52.434Z,81.70
2023-05-22T20:37:20.981Z,81.80
2023-05-22T20:39:50.160Z,81.90
2023-05-22T20:42:19.126Z,82.10
2023-05-22T20:44:47.540Z,82.30
2023-05-22T20:47:16.110Z,82.40
2023-05-22T20:49:45.716Z,82.60
2023-05-22T20:52:14.374Z,82.90
2023-05-22T20:54:42.752Z,83.10
2023-05-22T20:57:11.370Z,83.30
2023-05-22T20:59:41.019Z,83.30
2023-05-22T21:02:09.532Z,83.30
2023-05-22T21:04:37.782Z,83.50
2023-05-22T21:07:08.101Z,83.70
2023-05-22T21:09:36.526Z,83.90
2023-05-22T21:12:05.314Z,84.10
2023-05-22T21:14:33.668Z,84.20
2023-05-22T21:17:02.343Z,84.30
2023-05-22T21:19:30.896Z,84.50
2023-05-22T21:21:59.718Z,84.70
2023-05-22T21:24:29.294Z,84.90
2023-05-22T21:26:57.784Z,85.20
2023-05-22T21:29:26.031Z,85.40
2023-05-22T21:31:54.559Z,85.50
2023-05-22T21:34:23.015Z,85.60
2023-05-22T21:36:51.666Z,85.70
2023-05-22T21:39:19.833Z,86.00
2023-05-22T21:41:50.114Z,86.20
2023-05-22T21:44:18.529Z,86.40
2023-05-22T21:46:47.084Z,86.60
2023-05-22T21:49:15.777Z,86.70
2023-05-22T21:51:44.299Z,87.00
2023-05-22T21:54:12.484Z,87.20
2023-05-22T21:56:41.000Z,87.40
2023-05-22T21:59:10.632Z,87.60
2023-05-22T22:01:39.252Z,87.70
2023-05-22T22:04:07.660Z,87.90
2023-05-22T22:06:37.877Z,88.00
2023-05-22T22:09:06.100Z,88.30
2023-05-22T22:11:34.678Z,88.60
2023-05-22T22:14:02.897Z,88.80
2023-05-22T22:16:36.091Z,89.90
2023-05-22T22:19:04.921Z,89.20
2023-05-22T22:21:34.255Z,89.30
2023-05-22T22:24:02.590Z,89.50
2023-05-22T22:26:31.172Z,89.60
2023-05-22T22:28:59.413Z,89.90
2023-05-22T22:31:28.030Z,90.00
2023-05-22T22:33:57.693Z,90.10
2023-05-22T22:36:26.368Z,90.60
2023-05-22T22:38:54.593Z,90.30
2023-05-22T22:41:23.147Z,90.40
2023-05-22T22:43:52.754Z,90.50
2023-05-22T22:46:23.133Z,90.60
2023-05-22T22:48:51.856Z,90.70
2023-05-22T22:51:21.676Z,90.80
2023-05-22T22:53:50.032Z,90.90
2023-05-22T22:56:18.712Z,91.00
2023-05-22T22:58:47.017Z,91.10
2023-05-22T23:01:15.706Z,91.20
2023-05-22T23:03:43.902Z,91.30
2023-05-22T23:06:12.453Z,91.40
2023-05-22T23:08:42.114Z,91.50
2023-05-22T23:11:10.720Z,91.60
2023-05-22T23:13:41.148Z,91.70
2023-05-22T23:16:09.904Z,91.80
2023-05-22T23:18:38.123Z,91.80
2023-05-22T23:21:06.949Z,91.90
2023-05-22T23:23:35.158Z,92.00
2023-05-22T23:26:05.466Z,92.10
2023-05-22T23:28:33.791Z,92.20
2023-05-22T23:31:02.330Z,92.30
2023-05-22T23:33:30.663Z,92.40
2023-05-22T23:35:59.232Z,92.50
2023-05-22T23:38:27.425Z,92.50
2023-05-22T23:40:55.892Z,92.60
2023-05-22T23:43:25.552Z,92.70
2023-05-22T23:45:54.079Z,92.80
2023-05-22T23:48:22.310Z,92.80
2023-05-22T23:50:50.840Z,93.00
2023-05-22T23:53:19.177Z,93.00
2023-05-22T23:55:47.826Z,93.10
2023-05-22T23:58:16.917Z,93.30
